createdAt,value
2019-03-10T00:03:47.284Z,94941.68
2019-03-10T00:08:44.284Z,94927.47
2019-03-10T00:13:41.315Z,94912.66
2019-03-10T00:18:38.465Z,94914.23
2019-03-10T00:23:35.486Z,94910.36
2019-03-10T00:28:33.359Z,94908.23
2019-03-10T00:33:30.447Z,94888.45
2019-03-10T00:38:36.541Z,94875.37
2019-03-10T00:44:18.824Z,94824.11
2019-03-10T00:49:36.690Z,94842.93
2019-03-10T00:54:33.692Z,94851.05
2019-03-10T00:59:30.896Z,94837.90
2019-03-10T01:04:27.959Z,94836.94
2019-03-10T01:09:24.939Z,94824.31
2019-03-10T01:14:25.489Z,94842.22
2019-03-10T01:19:23.084Z,94847.11
2019-03-10T01:24:20.123Z,94835.30
2019-03-10T01:29:17.223Z,94834.22
2019-03-10T01:34:50.143Z,94821.23
2019-03-10T01:39:47.331Z,94812.40
2019-03-10T01:44:44.327Z,94811.17
2019-03-10T01:49:41.396Z,94793.84
2019-03-10T01:54:38.502Z,94785.48
2019-03-10T01:59:35.550Z,94795.66
2019-03-10T02:04:32.636Z,94783.47
2019-03-10T02:09:29.761Z,94794.52
2019-03-10T02:14:26.859Z,94808.14
2019-03-10T02:19:26.819Z,94819.30
2019-03-10T02:24:24.327Z,94822.23
2019-03-10T02:29:24.268Z,94819.83
2019-03-10T02:34:21.948Z,94837.65
2019-03-10T02:39:19.162Z,94863.97
2019-03-10T02:44:16.471Z,95033.13
2019-03-10T02:49:13.564Z,95025.04
2019-03-10T02:54:10.919Z,95020.61
2019-03-10T02:59:09.954Z,95005.89
2019-03-10T03:04:07.251Z,95006.98
2019-03-10T03:09:05.508Z,95023.50
2019-03-10T03:14:02.673Z,95030.80
2019-03-10T03:18:59.954Z,95037.38
2019-03-10T03:23:57.631Z,95034.86
2019-03-10T03:28:54.691Z,95047.86
2019-03-10T03:33:52.055Z,95071.20
2019-03-10T03:38:57.261Z,95056.09
2019-03-10T03:43:54.459Z,95055.32
2019-03-10T03:48:51.731Z,95079.46
2019-03-10T03:53:48.942Z,95107.07
2019-03-10T03:58:46.172Z,95089.08
2019-03-10T04:03:43.362Z,95098.61
2019-03-10T04:08:40.827Z,95103.28
2019-03-10T04:13:39.854Z,95116.69
2019-03-10T04:18:37.257Z,95121.53
2019-03-10T04:23:34.401Z,95132.69
2019-03-10T04:28:32.487Z,95145.05
2019-03-10T04:33:29.602Z,95149.73
2019-03-10T04:38:26.763Z,95136.63
2019-03-10T04:43:23.918Z,95161.44
2019-03-10T04:48:21.557Z,95160.16
2019-03-10T04:53:18.634Z,95170.23
2019-03-10T04:58:17.351Z,95162.17
2019-03-10T05:03:14.515Z,95177.27
2019-03-10T05:08:11.721Z,95198.67
2019-03-10T05:13:08.904Z,95203.16
2019-03-10T05:18:06.108Z,95211.66
2019-03-10T05:23:27.366Z,95222.77
2019-03-10T05:28:24.485Z,95228.25
2019-03-10T05:33:21.853Z,95239.50
2019-03-10T05:38:20.969Z,95247.72
2019-03-10T05:43:18.134Z,95255.00
2019-03-10T05:48:15.377Z,95254.61
2019-03-10T05:53:12.522Z,95265.07
2019-03-10T05:58:09.698Z,95282.91
2019-03-10T06:03:08.714Z,95279.14
2019-03-10T06:08:05.935Z,95290.09
2019-03-10T06:13:03.255Z,95293.72
2019-03-10T06:18:00.621Z,95296.58
2019-03-10T06:22:58.743Z,95299.48
2019-03-10T06:27:55.937Z,95307.17
2019-03-10T06:32:53.104Z,95296.73
2019-03-10T06:37:50.359Z,95299.67
2019-03-10T06:42:47.566Z,95308.16
2019-03-10T06:47:44.782Z,95314.37
2019-03-10T06:52:41.971Z,95324.50
2019-03-10T06:57:39.262Z,95323.70
2019-03-10T07:02:36.438Z,95329.27
2019-03-10T07:07:33.731Z,95313.72
2019-03-10T07:12:30.944Z,95321.89
2019-03-10T07:17:28.242Z,95311.53
2019-03-10T07:22:25.512Z,95299.55
2019-03-10T07:27:24.542Z,95288.08
2019-03-10T07:32:41.811Z,95286.55
2019-03-10T07:37:40.750Z,95292.00
2019-03-10T07:42:48.720Z,95289.92
2019-03-10T07:47:48.558Z,95290.02
2019-03-10T07:53:04.429Z,95299.30
2019-03-10T07:58:19.961Z,95300.66
2019-03-10T08:03:18.993Z,95294.25
2019-03-10T08:08:24.285Z,95293.16
2019-03-10T08:13:27.640Z,95288.37
2019-03-10T08:18:26.649Z,95289.48
2019-03-10T08:23:34.548Z,95295.11
2019-03-10T08:28:37.155Z,95292.57
2019-03-10T08:33:36.156Z,95296.44
2019-03-10T08:38:33.406Z,95301.89
2019-03-10T08:43:38.736Z,95308.56
2019-03-10T08:48:43.601Z,95293.02
2019-03-10T08:53:51.457Z,95288.06
2019-03-10T08:58:58.643Z,95267.69
2019-03-10T09:04:01.758Z,95264.67
2019-03-10T09:09:16.894Z,95255.83
2019-03-10T09:14:32.166Z,95240.17
2019-03-10T09:19:32.249Z,95222.55
2019-03-10T09:24:34.050Z,95219.95
2019-03-10T09:29:51.194Z,95222.63
2019-03-10T09:34:50.153Z,95212.59
2019-03-10T09:39:51.940Z,95207.59
2019-03-10T09:45:06.642Z,95207.09
2019-03-10T09:50:12.461Z,95198.85
2019-03-10T09:55:12.336Z,95199.73
2019-03-10T10:00:17.462Z,95180.14
2019-03-10T10:05:33.110Z,95164.26
2019-03-10T10:10:42.252Z,95162.19
2019-03-10T10:15:47.289Z,95148.61
2019-03-10T10:20:58.686Z,95157.56
2019-03-10T10:26:06.838Z,95152.55
2019-03-10T10:31:09.571Z,95138.98
2019-03-10T10:36:06.739Z,95123.27
2019-03-10T10:41:06.817Z,95106.90
2019-03-10T10:46:31.013Z,95104.06
2019-03-10T10:51:32.962Z,95107.75
2019-03-10T10:56:50.689Z,95115.36
2019-03-10T11:01:52.462Z,95100.25
2019-03-10T11:06:53.399Z,95102.59
2019-03-10T11:11:55.162Z,95103.70
2019-03-10T11:16:52.082Z,95092.34
2019-03-10T11:21:49.254Z,95082.48
2019-03-10T11:26:57.449Z,95080.33
2019-03-10T11:32:13.412Z,95078.63
2019-03-10T11:37:27.523Z,95072.33
2019-03-10T11:42:32.589Z,95061.78
2019-03-10T11:47:48.345Z,95063.77
2019-03-10T11:52:50.460Z,95051.80
2019-03-10T11:57:55.443Z,95054.87
2019-03-10T12:03:00.453Z,95036.47
2019-03-10T12:08:11.645Z,95043.77
2019-03-10T12:13:08.726Z,95033.94
2019-03-10T12:18:05.963Z,95036.02
2019-03-10T12:23:03.218Z,95045.87
2019-03-10T12:28:02.115Z,95023.41
2019-03-10T12:32:59.280Z,95019.48
2019-03-10T12:37:56.471Z,95025.82
2019-03-10T12:42:53.649Z,95019.20
2019-03-10T12:47:50.895Z,95035.16
2019-03-10T12:52:48.059Z,95024.17
2019-03-10T12:57:45.202Z,95010.28
2019-03-10T13:02:42.297Z,95001.52
2019-03-10T13:07:39.462Z,94977.26
2019-03-10T13:12:36.537Z,94991.70
2019-03-10T13:17:33.884Z,94982.45
2019-03-10T13:22:30.942Z,94981.29
2019-03-10T13:27:28.253Z,94974.14
2019-03-10T13:32:25.494Z,94972.55
2019-03-10T13:37:22.591Z,94979.31
2019-03-10T13:42:19.672Z,94960.98
2019-03-10T13:47:17.000Z,94940.59
2019-03-10T13:52:14.231Z,94934.78
2019-03-10T13:57:11.346Z,94934.80
2019-03-10T14:02:08.343Z,94921.18
2019-03-10T14:07:05.378Z,94950.96
2019-03-10T14:12:02.535Z,94924.81
2019-03-10T14:16:59.646Z,94929.77
2019-03-10T14:21:56.726Z,94904.59
2019-03-10T14:26:54.216Z,94915.23
2019-03-10T14:31:51.260Z,94895.26
2019-03-10T14:36:48.248Z,94877.55
2019-03-10T14:41:45.272Z,94862.78
2019-03-10T14:46:45.918Z,94866.42
2019-03-10T14:51:42.960Z,94866.70
2019-03-10T14:56:40.957Z,94844.27
2019-03-10T15:01:38.004Z,94842.95
2019-03-10T15:06:38.394Z,94836.53
2019-03-10T15:11:34.037Z,94824.98
2019-03-10T15:16:31.031Z,94819.83
2019-03-10T15:21:28.019Z,94805.74
2019-03-10T15:26:25.181Z,94810.20
2019-03-10T15:31:22.231Z,94786.50
2019-03-10T15:36:20.994Z,94771.61
2019-03-10T15:41:18.142Z,94779.98
2019-03-10T15:46:15.390Z,94756.25
2019-03-10T15:51:12.433Z,94740.81
2019-03-10T15:56:09.518Z,94732.45
2019-03-10T16:01:07.419Z,94715.98
2019-03-10T16:06:04.431Z,94711.70
2019-03-10T16:11:01.409Z,94697.69
2019-03-10T16:15:58.503Z,94687.16
2019-03-10T16:20:55.482Z,94672.52
2019-03-10T16:25:52.550Z,94666.43
2019-03-10T16:30:49.645Z,94638.91
2019-03-10T16:35:46.777Z,94642.66
2019-03-10T16:40:43.760Z,94620.64
2019-03-10T16:45:40.861Z,94618.61
2019-03-10T16:50:37.951Z,94609.61
2019-03-10T16:55:35.048Z,94615.30
2019-03-10T17:00:32.266Z,94593.88
2019-03-10T17:05:30.306Z,94592.59
2019-03-10T17:10:27.325Z,94578.34
2019-03-10T17:15:25.200Z,94552.80
2019-03-10T17:20:22.278Z,94556.89
2019-03-10T17:25:20.069Z,94540.02
2019-03-10T17:30:25.279Z,94520.44
2019-03-10T17:35:22.510Z,94513.12
2019-03-10T17:40:24.449Z,94509.67
2019-03-10T17:45:25.686Z,94492.63
2019-03-10T17:50:23.075Z,94480.23
2019-03-10T17:55:21.481Z,94482.11
2019-03-10T18:00:21.496Z,94471.11
2019-03-10T18:05:18.868Z,94460.56
2019-03-10T18:10:19.794Z,94455.83
2019-03-10T18:15:18.023Z,94434.66
2019-03-10T18:20:23.394Z,94446.13
2019-03-10T18:25:20.623Z,94410.51
2019-03-10T18:30:19.885Z,94429.98
2019-03-10T18:35:17.176Z,94423.02
2019-03-10T18:40:20.014Z,94398.24
2019-03-10T18:45:18.347Z,94403.55
2019-03-10T18:50:22.918Z,94391.50
2019-03-10T18:55:20.394Z,94390.15
2019-03-10T19:00:22.644Z,94385.92
2019-03-10T19:05:19.685Z,94368.34
2019-03-10T19:10:17.748Z,94368.34
2019-03-10T19:15:22.790Z,94351.52
2019-03-10T19:20:19.853Z,94337.95
2019-03-10T19:25:16.968Z,94337.72
2019-03-10T19:30:20.253Z,94350.94
2019-03-10T19:35:17.387Z,94342.90
2019-03-10T19:40:20.655Z,94362.35
2019-03-10T19:45:19.301Z,94353.59
2019-03-10T19:50:27.071Z,94338.30
2019-03-10T19:55:23.773Z,94367.83
2019-03-10T20:00:21.713Z,94370.72
2019-03-10T20:05:18.973Z,94376.09
2019-03-10T20:10:22.777Z,94371.69
2019-03-10T20:15:24.020Z,94364.19
2019-03-10T20:20:34.130Z,94361.97
2019-03-10T20:25:31.215Z,94357.16
2019-03-10T20:30:28.236Z,94362.61
2019-03-10T20:35:25.359Z,94325.73
2019-03-10T20:40:27.671Z,94315.16
2019-03-10T20:45:24.950Z,94294.27
2019-03-10T20:50:22.145Z,94288.14
2019-03-10T20:55:19.209Z,94284.20
2019-03-10T21:00:29.413Z,94283.06
2019-03-10T21:05:26.350Z,94294.94
2019-03-10T21:10:26.165Z,94289.21
2019-03-10T21:15:26.057Z,94288.58
2019-03-10T21:20:24.616Z,94276.45
2019-03-10T21:25:30.904Z,94274.88
2019-03-10T21:30:32.463Z,94277.87
2019-03-10T21:35:29.542Z,94271.28
2019-03-10T21:40:29.626Z,94270.80
2019-03-10T21:45:28.386Z,94286.77
2019-03-10T21:50:25.378Z,94291.45
2019-03-10T21:55:22.331Z,94304.49
2019-03-10T22:00:19.814Z,94294.84
2019-03-10T22:05:18.696Z,94292.95
2019-03-10T22:10:26.383Z,94289.89
2019-03-10T22:15:18.193Z,94298.09
2019-03-10T22:20:19.241Z,94293.02
2019-03-10T22:25:16.390Z,94303.58
2019-03-10T22:30:21.447Z,94311.84
2019-03-10T22:35:18.508Z,94297.40
2019-03-10T22:40:18.863Z,94318.34
2019-03-10T22:45:18.801Z,94317.38
2019-03-10T22:50:16.593Z,94322.06
2019-03-10T22:55:14.634Z,94309.15
2019-03-10T23:00:26.076Z,94306.59
2019-03-10T23:05:23.045Z,94309.58
2019-03-10T23:10:20.068Z,94319.34
2019-03-10T23:15:17.075Z,94325.17
2019-03-10T23:20:15.254Z,94334.05
2019-03-10T23:25:12.371Z,94352.52
2019-03-10T23:30:18.000Z,94337.05
2019-03-10T23:35:15.081Z,94337.07
2019-03-10T23:40:15.332Z,94355.39
2019-03-10T23:45:16.754Z,94380.25
2019-03-10T23:50:16.788Z,94389.88
2019-03-10T23:55:14.151Z,94422.47
